createdAt,value
2023-04-09T00:01:21.851Z,1.05
2023-04-09T00:04:11.367Z,2.28
2023-04-09T00:06:59.884Z,1.08
2023-04-09T00:09:48.349Z,1.42
2023-04-09T00:12:38.009Z,0.30
2023-04-09T00:15:31.327Z,2.75
2023-04-09T00:18:20.597Z,2.22
2023-04-09T00:21:09.100Z,3.05
2023-04-09T00:23:57.833Z,1.52
2023-04-09T00:26:46.521Z,2.00
2023-04-09T00:29:35.059Z,1.23
2023-04-09T00:32:23.802Z,0.43
2023-04-09T00:35:13.371Z,0.82
2023-04-09T00:38:02.062Z,0.95
2023-04-09T00:40:51.600Z,0.20
2023-04-09T00:43:40.893Z,1.98
2023-04-09T00:46:29.844Z,1.67
2023-04-09T00:49:18.147Z,1.10
2023-04-09T00:52:07.037Z,0.30
2023-04-09T00:54:55.851Z,0.88
2023-04-09T00:57:45.111Z,1.17
2023-04-09T01:00:33.372Z,2.08
2023-04-09T01:03:21.630Z,1.23
2023-04-09T01:06:23.104Z,2.65
2023-04-09T01:09:15.633Z,2.28
2023-04-09T01:12:13.188Z,0.60
2023-04-09T01:15:08.176Z,1.13
2023-04-09T01:18:12.134Z,1.75
2023-04-09T01:21:09.720Z,2.17
2023-04-09T01:24:26.960Z,0.32
2023-04-09T01:27:15.905Z,0.50
2023-04-09T01:30:16.934Z,2.40
2023-04-09T01:33:06.476Z,1.23
2023-04-09T01:35:56.863Z,1.27
2023-04-09T01:38:46.473Z,0.95
2023-04-09T01:41:36.365Z,0.30
2023-04-09T01:44:26.345Z,0.93
2023-04-09T01:47:40.917Z,0.20
2023-04-09T01:53:18.865Z,1.73
2023-04-09T01:56:08.481Z,0.68
2023-04-09T01:58:57.674Z,0.85
2023-04-09T02:01:50.144Z,0.47
2023-04-09T02:04:47.386Z,0.65
2023-04-09T02:07:38.742Z,0.55
2023-04-09T02:10:29.802Z,1.65
2023-04-09T02:13:21.134Z,0.68
2023-04-09T02:16:12.512Z,2.60
2023-04-09T02:19:03.812Z,0.70
2023-04-09T02:21:52.037Z,1.00
2023-04-09T02:24:40.809Z,0.30
2023-04-09T02:27:30.043Z,0.65
2023-04-09T02:30:18.236Z,0.40
2023-04-09T02:33:06.971Z,0.65
2023-04-09T02:35:55.881Z,0.38
2023-04-09T02:38:44.507Z,0.45
2023-04-09T02:41:33.254Z,1.30
2023-04-09T02:44:22.170Z,2.17
2023-04-09T02:47:11.310Z,0.65
2023-04-09T02:50:00.844Z,0.93
2023-04-09T02:52:52.245Z,0.30
2023-04-09T02:55:40.665Z,1.20
2023-04-09T02:58:30.043Z,1.00
2023-04-09T03:01:18.368Z,0.55
2023-04-09T03:04:07.168Z,0.45
2023-04-09T03:06:55.653Z,0.63
2023-04-09T03:09:45.166Z,1.77
2023-04-09T03:12:33.440Z,0.77
2023-04-09T03:15:22.023Z,0.57
2023-04-09T03:18:10.524Z,0.80
2023-04-09T03:21:00.151Z,1.25
2023-04-09T03:23:50.190Z,0.82
2023-04-09T03:26:38.661Z,0.30
2023-04-09T03:29:28.754Z,1.48
2023-04-09T03:32:18.948Z,0.60
2023-04-09T03:35:08.519Z,0.80
2023-04-09T03:37:57.735Z,0.30
2023-04-09T03:40:46.444Z,2.25
2023-04-09T03:43:35.544Z,0.25
2023-04-09T03:46:25.338Z,0.22
2023-04-09T03:49:14.166Z,0.35
2023-04-09T03:52:04.736Z,1.23
2023-04-09T03:54:59.178Z,0.40
2023-04-09T03:57:48.728Z,1.00
2023-04-09T04:00:40.048Z,0.90
2023-04-09T04:03:44.590Z,0.68
2023-04-09T04:06:53.525Z,0.82
2023-04-09T04:09:48.504Z,0.73
2023-04-09T04:12:41.181Z,0.57
2023-04-09T04:18:22.497Z,2.00
2023-04-09T04:21:14.726Z,0.20
2023-04-09T04:24:06.927Z,1.10
2023-04-09T04:26:56.623Z,0.35
2023-04-09T04:29:49.171Z,0.22
2023-04-09T04:32:48.874Z,0.32
2023-04-09T04:35:38.974Z,0.65
2023-04-09T04:38:31.127Z,1.92
2023-04-09T04:41:22.754Z,0.40
2023-04-09T04:44:18.131Z,0.57
2023-04-09T04:47:07.214Z,0.68
2023-04-09T04:49:55.818Z,1.23
2023-04-09T04:52:44.677Z,1.17
2023-04-09T04:55:35.453Z,0.20
2023-04-09T04:58:26.254Z,0.30
2023-04-09T05:01:19.110Z,0.35
2023-04-09T05:04:09.141Z,0.43
2023-04-09T05:06:59.146Z,0.20
2023-04-09T05:09:47.624Z,2.15
2023-04-09T05:12:36.043Z,0.85
2023-04-09T05:15:26.392Z,0.63
2023-04-09T05:18:14.979Z,1.33
2023-04-09T05:21:03.826Z,1.25
2023-04-09T05:23:54.257Z,0.70
2023-04-09T05:26:43.085Z,0.68
2023-04-09T05:29:32.249Z,0.98
2023-04-09T05:32:21.417Z,0.88
2023-04-09T05:35:10.702Z,1.17
2023-04-09T05:38:02.808Z,1.35
2023-04-09T05:40:51.868Z,0.73
2023-04-09T05:43:40.998Z,1.67
2023-04-09T05:46:30.073Z,0.85
2023-04-09T05:49:18.814Z,0.57
2023-04-09T05:52:11.086Z,1.20
2023-04-09T05:54:59.874Z,1.55
2023-04-09T05:58:01.719Z,1.83
2023-04-09T06:00:51.973Z,0.80
2023-04-09T06:03:41.763Z,0.75
2023-04-09T06:06:31.105Z,0.55
2023-04-09T06:09:22.001Z,0.75
2023-04-09T06:12:10.566Z,1.27
2023-04-09T06:14:58.951Z,0.93
2023-04-09T06:17:48.928Z,1.00
2023-04-09T06:20:37.694Z,0.90
2023-04-09T06:23:26.484Z,0.40
2023-04-09T06:26:15.216Z,0.85
2023-04-09T06:29:04.858Z,1.15
2023-04-09T06:31:53.547Z,1.15
2023-04-09T06:34:42.289Z,1.92
2023-04-09T06:37:31.273Z,0.80
2023-04-09T06:40:23.023Z,1.40
2023-04-09T06:43:12.212Z,1.33
2023-04-09T06:46:10.035Z,1.05
2023-04-09T06:48:58.599Z,0.75
2023-04-09T06:51:48.219Z,5.45
2023-04-09T06:54:36.912Z,5.35
2023-04-09T06:57:27.514Z,5.43
2023-04-09T07:00:16.556Z,5.32
2023-04-09T07:03:08.132Z,5.35
2023-04-09T07:05:57.760Z,5.05
2023-04-09T07:08:47.347Z,5.00
2023-04-09T07:11:35.547Z,4.60
2023-04-09T07:14:23.993Z,4.90
2023-04-09T07:17:12.822Z,4.50
2023-04-09T07:20:01.460Z,4.15
2023-04-09T07:22:50.988Z,4.00
2023-04-09T07:25:39.738Z,4.22
2023-04-09T07:28:28.598Z,4.50
2023-04-09T07:31:18.007Z,3.92
2023-04-09T07:34:06.869Z,4.22
2023-04-09T07:36:56.359Z,3.85
2023-04-09T07:39:44.783Z,4.22
2023-04-09T07:42:33.881Z,4.53
2023-04-09T07:45:22.426Z,4.40
2023-04-09T07:48:11.286Z,4.97
2023-04-09T07:51:00.732Z,5.07
2023-04-09T07:53:49.455Z,4.63
2023-04-09T07:56:38.065Z,6.30
2023-04-09T07:59:27.906Z,5.43
2023-04-09T08:02:16.650Z,5.85
2023-04-09T08:05:06.570Z,6.03
2023-04-09T08:07:54.747Z,6.07
2023-04-09T08:10:42.981Z,11.68
2023-04-09T08:13:31.640Z,7.45
2023-04-09T08:16:21.462Z,5.50
2023-04-09T08:19:10.770Z,5.95
2023-04-09T08:21:59.653Z,6.28
2023-04-09T08:24:52.570Z,6.80
2023-04-09T08:27:41.448Z,7.43
2023-04-09T08:30:30.746Z,6.90
2023-04-09T08:33:19.529Z,6.95
2023-04-09T08:36:11.993Z,6.53
2023-04-09T08:39:00.921Z,7.28
2023-04-09T08:41:51.409Z,7.18
2023-04-09T08:44:41.122Z,7.03
2023-04-09T08:47:30.461Z,6.40
2023-04-09T08:50:19.541Z,5.10
2023-04-09T08:53:09.860Z,5.45
2023-04-09T08:56:00.144Z,4.75
2023-04-09T08:58:49.038Z,4.32
2023-04-09T09:01:37.425Z,4.28
2023-04-09T09:04:43.407Z,4.13
2023-04-09T09:07:32.743Z,4.30
2023-04-09T09:10:21.332Z,3.92
2023-04-09T09:13:28.884Z,3.45
2023-04-09T09:16:18.513Z,3.08
2023-04-09T09:19:07.366Z,2.90
2023-04-09T09:22:00.678Z,2.92
2023-04-09T09:24:50.698Z,3.03
2023-04-09T09:27:43.232Z,2.95
2023-04-09T09:30:32.586Z,2.70
2023-04-09T09:33:21.332Z,2.80
2023-04-09T09:36:10.118Z,2.80
2023-04-09T09:39:02.237Z,2.50
2023-04-09T09:42:08.293Z,2.60
2023-04-09T09:44:57.635Z,2.60
2023-04-09T09:47:47.843Z,2.95
2023-04-09T09:50:37.969Z,3.42
2023-04-09T09:53:27.805Z,2.63
2023-04-09T09:56:25.033Z,3.17
2023-04-09T09:59:24.730Z,2.78
2023-04-09T10:02:20.489Z,2.78
2023-04-09T10:05:09.911Z,2.78
2023-04-09T10:08:00.558Z,3.58
2023-04-09T10:10:49.637Z,3.00
2023-04-09T10:14:10.721Z,2.90
2023-04-09T10:16:59.103Z,2.55
2023-04-09T10:20:01.948Z,2.83
2023-04-09T10:22:52.801Z,2.97
2023-04-09T10:25:42.585Z,2.50
2023-04-09T10:28:31.892Z,2.53
2023-04-09T10:31:21.256Z,2.47
2023-04-09T10:34:11.011Z,2.50
2023-04-09T10:37:00.145Z,2.72
2023-04-09T10:39:51.332Z,2.50
2023-04-09T10:42:42.499Z,2.47
2023-04-09T10:45:41.856Z,2.30
2023-04-09T10:48:34.746Z,3.00
2023-04-09T10:51:25.186Z,3.13
2023-04-09T10:54:34.451Z,3.30
2023-04-09T10:57:24.594Z,2.88
2023-04-09T11:00:14.093Z,3.13
2023-04-09T11:03:22.119Z,2.63
2023-04-09T11:06:11.641Z,2.67
2023-04-09T11:09:03.574Z,2.47
2023-04-09T11:11:54.313Z,2.60
2023-04-09T11:14:42.989Z,2.70
2023-04-09T11:17:36.159Z,2.58
2023-04-09T11:20:26.153Z,2.75
2023-04-09T11:23:15.742Z,2.75
2023-04-09T11:26:05.460Z,2.47
2023-04-09T11:28:57.789Z,3.65
2023-04-09T11:31:46.343Z,2.88
2023-04-09T11:34:34.697Z,2.90
2023-04-09T11:37:24.062Z,3.20
2023-04-09T11:40:21.999Z,3.10
2023-04-09T11:43:10.984Z,2.58
2023-04-09T11:46:00.680Z,2.30
2023-04-09T11:48:49.660Z,2.38
2023-04-09T11:51:38.685Z,2.45
2023-04-09T11:54:33.176Z,2.55
2023-04-09T11:57:22.467Z,2.45
2023-04-09T12:00:16.353Z,2.78
2023-04-09T12:03:05.905Z,2.30
2023-04-09T12:05:54.604Z,2.63
2023-04-09T12:08:43.829Z,2.60
2023-04-09T12:11:32.895Z,2.45
2023-04-09T12:14:22.710Z,2.78
2023-04-09T12:17:11.127Z,2.80
2023-04-09T12:19:59.345Z,2.60
2023-04-09T12:22:47.984Z,2.55
2023-04-09T12:25:40.223Z,2.63
2023-04-09T12:28:28.874Z,2.83
2023-04-09T12:31:17.686Z,2.60
2023-04-09T12:34:06.294Z,2.78
2023-04-09T12:36:54.505Z,2.85
2023-04-09T12:39:42.678Z,3.05
2023-04-09T12:42:31.839Z,2.88
2023-04-09T12:45:21.661Z,2.80
2023-04-09T12:48:10.030Z,3.10
2023-04-09T12:50:58.689Z,2.60
2023-04-09T12:53:47.690Z,2.60
2023-04-09T12:56:36.190Z,2.45
2023-04-09T12:59:24.842Z,2.83
2023-04-09T13:02:13.470Z,2.70
2023-04-09T13:05:02.073Z,2.80
2023-04-09T13:07:51.534Z,2.60
2023-04-09T13:10:41.081Z,2.95
2023-04-09T13:13:29.873Z,2.40
2023-04-09T13:16:18.072Z,2.80
2023-04-09T13:19:08.890Z,2.78
2023-04-09T13:21:57.113Z,2.88
2023-04-09T13:24:45.715Z,2.75
2023-04-09T13:27:34.410Z,2.65
2023-04-09T13:30:23.927Z,2.20
2023-04-09T13:33:12.968Z,2.40
2023-04-09T13:36:02.058Z,2.75
2023-04-09T13:39:16.711Z,2.70
2023-04-09T13:42:12.646Z,2.45
2023-04-09T13:45:01.717Z,2.95
2023-04-09T13:47:51.923Z,2.60
2023-04-09T13:50:41.289Z,2.55
2023-04-09T13:53:29.730Z,3.20
2023-04-09T13:56:18.006Z,3.08
2023-04-09T13:59:07.359Z,3.42
2023-04-09T14:01:56.565Z,2.90
2023-04-09T14:04:45.108Z,3.00
2023-04-09T14:07:33.900Z,3.25
2023-04-09T14:10:23.316Z,3.00
2023-04-09T14:13:12.630Z,2.70
2023-04-09T14:16:01.432Z,2.53
2023-04-09T14:18:50.368Z,2.78
2023-04-09T14:21:41.244Z,2.50
2023-04-09T14:24:29.809Z,2.70
2023-04-09T14:27:18.677Z,2.50
2023-04-09T14:30:08.093Z,3.15
2023-04-09T14:32:56.933Z,2.35
2023-04-09T14:35:46.069Z,2.53
2023-04-09T14:38:35.695Z,3.00
2023-04-09T14:41:24.096Z,2.95
2023-04-09T14:44:12.773Z,2.80
2023-04-09T14:47:01.130Z,2.88
2023-04-09T14:49:49.861Z,3.10
2023-04-09T14:52:39.451Z,3.08
2023-04-09T14:55:28.474Z,3.03
2023-04-09T14:58:16.700Z,3.20
2023-04-09T15:01:06.751Z,3.08
2023-04-09T15:03:55.999Z,2.70
2023-04-09T15:06:45.554Z,3.35
2023-04-09T15:09:34.279Z,3.00
2023-04-09T15:12:23.100Z,3.10
2023-04-09T15:15:14.138Z,3.05
2023-04-09T15:18:06.052Z,2.67
2023-04-09T15:20:54.709Z,3.30
2023-04-09T15:23:43.226Z,3.40
2023-04-09T15:26:34.630Z,3.00
2023-04-09T15:29:24.142Z,3.35
2023-04-09T15:32:13.079Z,2.83
2023-04-09T15:35:02.189Z,2.60
2023-04-09T15:37:54.324Z,2.80
2023-04-09T15:40:43.885Z,2.58
2023-04-09T15:43:47.174Z,2.65
2023-04-09T15:46:36.156Z,2.40
2023-04-09T15:49:25.724Z,2.15
2023-04-09T15:52:39.775Z,2.65
2023-04-09T15:55:29.304Z,11.23
2023-04-09T15:58:46.692Z,6.20
2023-04-09T16:01:36.795Z,7.35
2023-04-09T16:04:26.992Z,4.10
2023-04-09T16:07:16.864Z,2.67
2023-04-09T16:10:06.498Z,3.28
2023-04-09T16:12:55.540Z,3.60
2023-04-09T16:15:45.515Z,12.00
2023-04-09T16:18:34.794Z,9.90
2023-04-09T16:21:23.084Z,3.80
2023-04-09T16:24:12.925Z,3.53
2023-04-09T16:27:02.418Z,3.53
2023-04-09T16:29:50.774Z,3.53
2023-04-09T16:32:39.518Z,2.92
2023-04-09T16:35:28.932Z,3.33
2023-04-09T16:38:19.541Z,3.30
2023-04-09T16:41:08.117Z,3.30
2023-04-09T16:43:57.056Z,3.40
2023-04-09T16:46:45.951Z,3.47
2023-04-09T16:49:34.271Z,3.30
2023-04-09T16:52:22.836Z,3.42
2023-04-09T16:55:11.352Z,4.03
2023-04-09T16:58:01.155Z,3.70
2023-04-09T17:00:51.441Z,3.95
2023-04-09T17:03:41.175Z,4.85
2023-04-09T17:06:29.715Z,4.28
2023-04-09T17:09:17.975Z,4.07
2023-04-09T17:12:07.013Z,3.50
2023-04-09T17:14:56.153Z,3.25
2023-04-09T17:17:46.398Z,3.42
2023-04-09T17:20:35.557Z,3.30
2023-04-09T17:23:23.788Z,4.28
2023-04-09T17:26:13.210Z,4.43
2023-04-09T17:29:02.142Z,4.65
2023-04-09T17:31:53.235Z,4.72
2023-04-09T17:34:41.916Z,5.03
2023-04-09T17:37:31.288Z,5.05
2023-04-09T17:40:20.226Z,5.20
2023-04-09T17:43:08.890Z,5.30
2023-04-09T17:45:57.604Z,7.07
2023-04-09T17:48:46.041Z,12.68
2023-04-09T17:51:35.379Z,11.75
2023-04-09T17:54:24.227Z,18.13
2023-04-09T17:57:13.100Z,18.05
2023-04-09T18:00:01.944Z,18.92
2023-04-09T18:02:53.225Z,55.17
2023-04-09T18:05:41.990Z,26.23
2023-04-09T18:08:31.023Z,23.10
2023-04-09T18:11:19.379Z,17.08
2023-04-09T18:14:08.989Z,14.80
2023-04-09T18:16:58.026Z,21.90
2023-04-09T18:19:46.578Z,12.57
2023-04-09T18:22:35.377Z,11.73
2023-04-09T18:25:24.109Z,17.35
2023-04-09T18:28:13.060Z,18.45
2023-04-09T18:31:01.376Z,18.83
2023-04-09T18:33:49.923Z,19.65
2023-04-09T18:36:39.140Z,18.48
2023-04-09T18:39:28.381Z,17.75
2023-04-09T18:42:16.709Z,17.40
2023-04-09T18:45:06.053Z,14.15
2023-04-09T18:47:54.886Z,14.90
2023-04-09T18:50:43.927Z,21.08
2023-04-09T18:53:32.358Z,21.48
2023-04-09T18:56:21.305Z,19.77
2023-04-09T18:59:10.054Z,16.48
2023-04-09T19:01:58.677Z,13.30
2023-04-09T19:04:47.997Z,13.20
2023-04-09T19:07:37.864Z,9.85
2023-04-09T19:10:27.368Z,10.23
2023-04-09T19:13:16.989Z,11.57
2023-04-09T19:16:07.506Z,10.23
2023-04-09T19:18:56.920Z,10.60
2023-04-09T19:21:45.938Z,13.95
2023-04-09T19:24:34.762Z,12.48
2023-04-09T19:27:23.685Z,9.15
2023-04-09T19:30:13.249Z,17.77
2023-04-09T19:33:02.510Z,11.57
2023-04-09T19:35:52.425Z,16.90
2023-04-09T19:38:41.094Z,16.73
2023-04-09T19:41:30.149Z,16.95
2023-04-09T19:44:18.961Z,16.40
2023-04-09T19:47:07.734Z,14.27
2023-04-09T19:49:56.616Z,12.63
2023-04-09T19:52:45.364Z,9.65
2023-04-09T19:55:34.172Z,14.13
2023-04-09T19:58:23.239Z,12.75
2023-04-09T20:01:11.573Z,13.70
2023-04-09T20:04:01.230Z,13.38
2023-04-09T20:06:51.734Z,13.55
2023-04-09T20:09:42.707Z,15.02
2023-04-09T20:12:32.089Z,11.43
2023-04-09T20:15:21.446Z,12.88
2023-04-09T20:18:09.828Z,9.45
2023-04-09T20:20:58.207Z,11.98
2023-04-09T20:23:47.080Z,12.40
2023-04-09T20:26:35.898Z,12.70
2023-04-09T20:29:24.608Z,15.18
2023-04-09T20:32:13.630Z,19.20
2023-04-09T20:35:02.093Z,21.13
2023-04-09T20:37:51.438Z,20.20
2023-04-09T20:40:40.229Z,17.42
2023-04-09T20:43:28.469Z,16.25
2023-04-09T20:46:16.795Z,12.55
2023-04-09T20:49:30.906Z,14.63
2023-04-09T20:52:19.088Z,16.00
2023-04-09T20:55:07.916Z,16.10
2023-04-09T20:57:56.157Z,15.77
2023-04-09T21:00:44.606Z,15.07
2023-04-09T21:03:34.965Z,15.45
2023-04-09T21:06:23.313Z,18.27
2023-04-09T21:09:11.509Z,18.20
2023-04-09T21:12:00.125Z,17.00
2023-04-09T21:14:48.577Z,16.25
2023-04-09T21:17:36.964Z,16.95
2023-04-09T21:20:25.793Z,17.00
2023-04-09T21:23:13.957Z,15.38
2023-04-09T21:26:04.846Z,14.68
2023-04-09T21:28:53.503Z,16.50
2023-04-09T21:31:41.968Z,16.13
2023-04-09T21:34:30.481Z,15.55
2023-04-09T21:37:18.631Z,12.68
2023-04-09T21:40:07.854Z,14.27
2023-04-09T21:42:56.768Z,14.65
2023-04-09T21:45:44.972Z,12.57
2023-04-09T21:48:33.346Z,11.90
2023-04-09T21:51:21.604Z,12.25
2023-04-09T21:54:11.255Z,13.05
2023-04-09T21:56:59.424Z,14.20
2023-04-09T21:59:47.769Z,14.65
2023-04-09T22:02:36.036Z,13.38
2023-04-09T22:05:24.212Z,13.75
2023-04-09T22:08:13.268Z,15.02
2023-04-09T22:11:01.981Z,12.27
2023-04-09T22:13:50.451Z,12.38
2023-04-09T22:16:38.796Z,11.65
2023-04-09T22:19:31.401Z,12.70
2023-04-09T22:22:19.583Z,12.77
2023-04-09T22:25:08.446Z,14.40
2023-04-09T22:27:56.610Z,13.52
2023-04-09T22:30:45.277Z,12.75
2023-04-09T22:33:33.798Z,12.25
2023-04-09T22:36:22.191Z,9.63
2023-04-09T22:39:11.006Z,9.98
2023-04-09T22:41:59.603Z,9.52
2023-04-09T22:44:48.006Z,10.52
2023-04-09T22:47:36.565Z,10.63
2023-04-09T22:50:50.164Z,11.00
2023-04-09T22:53:38.326Z,11.10
2023-04-09T22:56:26.613Z,9.30
2023-04-09T22:59:15.654Z,9.98
2023-04-09T23:02:04.197Z,10.38
2023-04-09T23:04:52.475Z,11.25
2023-04-09T23:07:42.817Z,11.55
2023-04-09T23:10:31.697Z,12.30
2023-04-09T23:13:19.805Z,12.73
2023-04-09T23:16:09.614Z,12.20
2023-04-09T23:18:57.798Z,11.70
2023-04-09T23:21:46.236Z,13.35
2023-04-09T23:24:34.462Z,11.85
2023-04-09T23:27:28.293Z,12.07
2023-04-09T23:30:17.189Z,12.05
2023-04-09T23:33:05.881Z,11.52
2023-04-09T23:35:54.285Z,11.60
2023-04-09T23:38:43.907Z,12.45
2023-04-09T23:41:32.164Z,12.43
2023-04-09T23:44:20.724Z,12.88
2023-04-09T23:47:09.063Z,13.23
2023-04-09T23:49:58.181Z,13.52
2023-04-09T23:52:48.172Z,12.43
2023-04-09T23:55:41.671Z,15.30
2023-04-09T23:58:30.107Z,11.77
